createdAt,value
2023-04-10T00:00:28.847Z,100937.25
2023-04-10T00:15:18.745Z,100943.21
2023-04-10T00:30:08.012Z,100942.02
2023-04-10T00:44:58.465Z,100935.84
2023-04-10T00:59:48.590Z,100923.19
2023-04-10T01:15:06.735Z,100923.62
2023-04-10T01:30:17.633Z,100928.00
2023-04-10T01:45:14.713Z,100944.46
2023-04-10T02:29:52.539Z,100909.56
2023-04-10T02:44:42.310Z,100909.09
2023-04-10T03:14:25.253Z,100894.33
2023-04-10T03:29:15.759Z,100869.44
2023-04-10T03:44:06.050Z,100842.22
2023-04-10T03:58:57.926Z,100833.25
2023-04-10T04:13:48.223Z,100847.16
2023-04-10T04:28:38.540Z,100846.75
2023-04-10T04:43:29.011Z,100840.72
2023-04-10T04:58:20.365Z,100848.69
2023-04-10T05:13:10.633Z,100857.32
2023-04-10T05:28:01.903Z,100851.50
2023-04-10T05:42:52.791Z,100844.91
2023-04-10T05:57:43.071Z,100865.98
2023-04-10T06:12:34.772Z,100848.88
2023-04-10T06:27:26.098Z,100854.17
2023-04-10T06:42:17.608Z,100845.81
2023-04-10T06:57:09.781Z,100837.93
2023-04-10T07:12:00.644Z,100841.30
2023-04-10T07:26:52.340Z,100847.58
2023-04-10T07:41:44.911Z,100830.44
2023-04-10T07:56:38.219Z,100826.26
2023-04-10T08:11:32.000Z,100830.27
2023-04-10T08:26:23.900Z,100821.95
2023-04-10T08:41:16.228Z,100808.51
2023-04-10T08:56:10.088Z,100802.23
2023-04-10T09:25:54.258Z,100746.73
2023-04-10T09:40:47.839Z,100724.41
2023-04-10T09:55:40.125Z,100699.25
2023-04-10T10:25:24.727Z,100673.56
2023-04-10T10:40:24.984Z,100661.95
2023-04-10T11:10:58.545Z,100640.46
2023-04-10T11:25:57.106Z,100616.11
2023-04-10T11:41:04.180Z,100595.69
2023-04-10T11:56:01.485Z,100581.20
2023-04-10T12:10:53.530Z,100552.46
2023-04-10T12:25:45.351Z,100535.58
2023-04-10T12:40:37.413Z,100525.59
2023-04-10T12:55:30.410Z,100500.93
2023-04-10T13:10:22.367Z,100502.74
2023-04-10T13:40:07.254Z,100455.77
2023-04-10T14:09:52.989Z,100418.81
2023-04-10T14:24:45.411Z,100409.77
2023-04-10T16:08:47.487Z,100270.95
2023-04-10T16:23:39.177Z,100241.00
2023-04-10T16:38:31.213Z,100241.83
2023-04-10T16:53:21.483Z,100238.59
2023-04-10T17:08:12.641Z,100237.40
2023-04-10T17:23:03.199Z,100213.91
2023-04-10T17:37:54.566Z,100184.27
2023-04-10T17:52:45.889Z,100121.02
2023-04-10T18:07:37.994Z,100139.47
2023-04-10T18:22:33.904Z,100170.02
2023-04-10T18:37:25.530Z,100185.53
2023-04-10T19:07:23.462Z,100180.55
2023-04-10T19:22:16.689Z,100200.57
2023-04-10T19:37:07.422Z,100223.93
2023-04-10T19:51:59.147Z,100185.98
2023-04-10T20:06:50.500Z,100180.26
2023-04-10T20:21:40.971Z,100151.99
2023-04-10T20:36:32.237Z,100121.84
2023-04-10T20:51:23.036Z,100102.66
2023-04-10T21:06:13.410Z,100081.30
2023-04-10T21:21:04.975Z,100108.98
2023-04-10T21:35:56.060Z,100086.67
2023-04-10T21:50:46.943Z,100057.34
2023-04-10T22:05:38.271Z,100001.97
2023-04-10T22:20:29.166Z,99962.42
2023-04-10T22:35:20.881Z,99935.47
2023-04-10T22:50:12.595Z,99964.66
2023-04-10T23:19:54.633Z,99970.41
2023-04-10T23:34:45.487Z,99974.30
